createdAt,value
2023-07-25T00:00:47.058Z,2.90
2023-07-25T00:03:14.531Z,2.70
2023-07-25T00:05:42.946Z,3.10
2023-07-25T00:08:10.313Z,2.30
2023-07-25T00:10:37.670Z,2.63
2023-07-25T00:13:05.020Z,2.87
2023-07-25T00:15:32.665Z,3.60
2023-07-25T00:18:01.146Z,4.97
2023-07-25T00:20:28.817Z,3.00
2023-07-25T00:22:56.230Z,3.20
2023-07-25T00:25:23.644Z,6.23
2023-07-25T00:27:51.333Z,3.33
2023-07-25T00:30:18.638Z,3.57
2023-07-25T00:32:45.980Z,3.70
2023-07-25T00:35:13.315Z,2.73
2023-07-25T00:37:41.793Z,3.60
2023-07-25T00:40:09.445Z,3.30
2023-07-25T00:42:36.897Z,3.30
2023-07-25T00:45:04.361Z,3.20
2023-07-25T00:47:32.844Z,3.60
2023-07-25T00:50:00.560Z,4.60
2023-07-25T00:52:28.309Z,2.80
2023-07-25T00:54:55.886Z,2.80
2023-07-25T00:57:24.151Z,3.10
2023-07-25T00:59:51.725Z,2.80
2023-07-25T01:02:20.213Z,2.60
2023-07-25T01:04:47.821Z,2.50
2023-07-25T01:07:15.658Z,2.50
2023-07-25T01:09:45.748Z,4.23
2023-07-25T01:12:13.785Z,4.83
2023-07-25T01:14:41.982Z,4.03
2023-07-25T01:17:11.349Z,3.27
2023-07-25T01:19:41.148Z,3.13
2023-07-25T01:22:09.486Z,3.20
2023-07-25T01:24:47.856Z,3.93
2023-07-25T01:27:17.155Z,3.00
2023-07-25T01:29:45.250Z,2.83
2023-07-25T01:32:13.177Z,2.93
2023-07-25T01:34:40.677Z,3.10
2023-07-25T01:37:08.725Z,3.83
2023-07-25T01:39:36.319Z,2.50
2023-07-25T01:42:03.891Z,3.40
2023-07-25T01:44:31.363Z,4.43
2023-07-25T01:46:58.847Z,3.17
2023-07-25T01:49:27.331Z,3.87
2023-07-25T01:51:54.753Z,2.83
2023-07-25T01:54:22.184Z,2.83
2023-07-25T01:56:50.859Z,3.23
2023-07-25T01:59:19.148Z,3.43
2023-07-25T02:01:46.853Z,2.70
2023-07-25T02:04:14.407Z,4.10
2023-07-25T02:06:41.830Z,3.03
2023-07-25T02:09:09.216Z,3.00
2023-07-25T02:11:36.784Z,3.93
2023-07-25T02:14:05.334Z,3.20
2023-07-25T02:16:37.725Z,3.53
2023-07-25T02:19:05.511Z,2.40
2023-07-25T02:21:33.585Z,4.63
2023-07-25T02:24:01.650Z,2.80
2023-07-25T02:26:29.483Z,3.97
2023-07-25T02:28:57.975Z,5.70
2023-07-25T02:31:25.593Z,3.47
2023-07-25T02:33:53.155Z,4.00
2023-07-25T02:36:22.876Z,6.77
2023-07-25T02:38:50.656Z,3.33
2023-07-25T02:41:18.300Z,4.30
2023-07-25T02:43:46.510Z,4.70
2023-07-25T02:46:14.053Z,5.33
2023-07-25T02:48:41.547Z,3.90
2023-07-25T02:51:10.258Z,6.03
2023-07-25T02:53:37.733Z,5.67
2023-07-25T02:56:05.505Z,4.77
2023-07-25T02:58:32.992Z,5.27
2023-07-25T03:01:01.730Z,5.20
2023-07-25T03:03:29.161Z,5.07
2023-07-25T03:05:56.788Z,5.97
2023-07-25T03:08:24.054Z,4.80
2023-07-25T03:10:51.370Z,5.43
2023-07-25T03:13:18.715Z,5.60
2023-07-25T03:15:46.233Z,6.10
2023-07-25T03:18:13.656Z,6.93
2023-07-25T03:20:41.064Z,5.93
2023-07-25T03:23:08.398Z,7.00
2023-07-25T03:25:35.838Z,6.87
2023-07-25T03:28:04.349Z,7.70
2023-07-25T03:30:31.864Z,7.00
2023-07-25T03:32:59.924Z,7.40
2023-07-25T03:35:27.276Z,7.43
2023-07-25T03:37:54.485Z,6.60
2023-07-25T03:40:22.445Z,8.03
2023-07-25T03:42:49.701Z,10.40
2023-07-25T03:45:18.373Z,8.30
2023-07-25T03:47:45.682Z,7.90
2023-07-25T03:50:12.953Z,8.40
2023-07-25T03:52:40.724Z,9.23
2023-07-25T03:55:08.185Z,10.20
2023-07-25T03:57:36.312Z,11.20
2023-07-25T04:00:04.053Z,13.87
2023-07-25T04:02:39.331Z,9.43
2023-07-25T04:05:08.355Z,10.80
2023-07-25T04:07:35.856Z,13.03
2023-07-25T04:10:03.166Z,8.50
2023-07-25T04:12:30.596Z,11.00
2023-07-25T04:14:57.913Z,11.17
2023-07-25T04:17:27.756Z,12.40
2023-07-25T04:19:55.051Z,10.10
2023-07-25T04:22:22.938Z,9.77
2023-07-25T04:24:50.287Z,9.87
2023-07-25T04:27:17.544Z,11.63
2023-07-25T04:29:44.756Z,11.53
2023-07-25T04:32:12.400Z,13.70
2023-07-25T04:34:39.725Z,14.50
2023-07-25T04:37:07.577Z,11.63
2023-07-25T04:39:37.175Z,13.50
2023-07-25T04:42:05.648Z,9.47
2023-07-25T04:44:32.836Z,10.47
2023-07-25T04:47:00.086Z,10.53
2023-07-25T04:49:27.493Z,11.40
2023-07-25T04:51:54.761Z,9.90
2023-07-25T04:54:22.222Z,10.17
2023-07-25T04:56:49.528Z,11.63
2023-07-25T04:59:16.726Z,12.67
2023-07-25T05:01:45.340Z,10.63
2023-07-25T05:04:13.613Z,9.53
2023-07-25T05:06:40.811Z,11.07
2023-07-25T05:09:08.495Z,10.27
2023-07-25T05:11:35.773Z,12.97
2023-07-25T05:14:03.513Z,11.53
2023-07-25T05:16:30.791Z,13.37
2023-07-25T05:18:58.371Z,15.50
2023-07-25T05:21:25.709Z,12.73
2023-07-25T05:23:52.947Z,14.10
2023-07-25T05:26:21.360Z,13.40
2023-07-25T05:28:49.563Z,15.53
2023-07-25T05:31:17.219Z,13.40
2023-07-25T05:33:44.815Z,14.40
2023-07-25T05:36:12.027Z,12.33
2023-07-25T05:38:39.236Z,12.77
2023-07-25T05:41:07.868Z,11.87
2023-07-25T05:43:35.167Z,14.40
2023-07-25T05:46:02.592Z,11.00
2023-07-25T05:48:29.919Z,10.13
2023-07-25T05:50:57.201Z,13.07
2023-07-25T05:53:24.439Z,11.17
2023-07-25T05:55:51.632Z,11.33
2023-07-25T05:58:19.364Z,11.07
2023-07-25T06:00:46.953Z,12.37
2023-07-25T06:03:14.940Z,13.20
2023-07-25T06:05:44.811Z,13.00
2023-07-25T06:08:12.064Z,11.50
2023-07-25T06:10:42.378Z,16.47
2023-07-25T06:13:09.986Z,14.47
2023-07-25T06:15:38.785Z,14.10
2023-07-25T06:18:06.280Z,15.53
2023-07-25T06:20:33.686Z,14.53
2023-07-25T06:23:01.727Z,16.03
2023-07-25T06:25:29.204Z,15.00
2023-07-25T06:27:56.536Z,14.73
2023-07-25T06:30:23.872Z,13.00
2023-07-25T06:32:52.945Z,15.70
2023-07-25T06:35:23.684Z,13.43
2023-07-25T06:37:51.397Z,12.63
2023-07-25T06:40:18.611Z,16.03
2023-07-25T06:42:45.879Z,13.37
2023-07-25T06:45:14.860Z,19.17
2023-07-25T06:47:42.521Z,15.17
2023-07-25T06:50:10.066Z,17.00
2023-07-25T06:52:37.372Z,17.10
2023-07-25T06:55:04.663Z,12.87
2023-07-25T06:57:31.981Z,13.53
2023-07-25T06:59:59.205Z,12.63
2023-07-25T07:02:26.594Z,12.83
2023-07-25T07:04:57.037Z,11.83
2023-07-25T07:07:25.177Z,17.70
2023-07-25T07:09:52.665Z,17.10
2023-07-25T07:12:20.013Z,16.50
2023-07-25T07:14:47.256Z,16.03
2023-07-25T07:17:14.481Z,14.77
2023-07-25T07:19:43.373Z,14.00
2023-07-25T07:22:13.312Z,11.83
2023-07-25T07:24:42.134Z,11.90
2023-07-25T07:27:09.470Z,14.33
2023-07-25T07:29:38.123Z,12.27
2023-07-25T07:32:07.900Z,11.83
2023-07-25T07:34:35.128Z,12.60
2023-07-25T07:37:02.628Z,13.20
2023-07-25T07:39:29.900Z,13.90
2023-07-25T07:41:57.866Z,11.90
2023-07-25T07:44:25.767Z,12.37
2023-07-25T07:46:53.088Z,12.63
2023-07-25T07:49:23.808Z,12.33
2023-07-25T07:52:05.435Z,11.53
2023-07-25T07:54:38.274Z,11.43
2023-07-25T07:57:05.811Z,15.57
2023-07-25T07:59:33.123Z,13.83
2023-07-25T08:02:03.794Z,12.47
2023-07-25T08:04:31.030Z,14.23
2023-07-25T08:06:58.302Z,13.43
2023-07-25T08:09:25.529Z,18.20
2023-07-25T08:11:52.756Z,13.47
2023-07-25T08:14:20.005Z,13.20
2023-07-25T08:16:47.271Z,15.00
2023-07-25T08:19:15.034Z,12.40
2023-07-25T08:21:42.298Z,15.23
2023-07-25T08:24:09.520Z,14.70
2023-07-25T08:26:36.813Z,14.60
2023-07-25T08:29:04.063Z,12.50
2023-07-25T08:31:32.317Z,12.67
2023-07-25T08:34:00.038Z,12.40
2023-07-25T08:36:27.327Z,10.47
2023-07-25T08:38:55.889Z,11.50
2023-07-25T08:41:27.264Z,11.87
2023-07-25T08:43:54.777Z,12.57
2023-07-25T08:46:22.335Z,11.57
2023-07-25T08:48:51.607Z,12.63
2023-07-25T08:51:20.615Z,9.60
2023-07-25T08:53:56.758Z,11.20
2023-07-25T08:56:24.115Z,12.93
2023-07-25T08:58:52.385Z,8.80
2023-07-25T09:01:20.664Z,8.83
2023-07-25T09:03:49.051Z,8.57
2023-07-25T09:06:16.629Z,9.67
2023-07-25T09:08:43.811Z,8.73
2023-07-25T09:11:13.458Z,9.17
2023-07-25T09:13:42.848Z,9.60
2023-07-25T09:16:10.721Z,8.33
2023-07-25T09:18:38.002Z,8.00
2023-07-25T09:21:05.233Z,10.53
2023-07-25T09:23:32.461Z,11.57
2023-07-25T09:26:07.909Z,8.00
2023-07-25T09:28:35.221Z,8.97
2023-07-25T09:31:06.912Z,8.10
2023-07-25T09:33:34.947Z,9.10
2023-07-25T09:36:02.185Z,8.60
2023-07-25T09:38:29.423Z,9.67
2023-07-25T09:40:56.875Z,7.40
2023-07-25T09:43:27.939Z,9.00
2023-07-25T09:45:55.924Z,8.50
2023-07-25T09:48:23.783Z,8.83
2023-07-25T09:50:52.153Z,8.60
2023-07-25T09:53:19.662Z,8.80
2023-07-25T09:55:47.820Z,8.60
2023-07-25T09:58:15.441Z,9.97
2023-07-25T10:00:43.341Z,8.57
2023-07-25T10:03:11.166Z,9.30
2023-07-25T10:05:45.636Z,8.73
2023-07-25T10:08:14.075Z,8.10
2023-07-25T10:10:42.200Z,9.20
2023-07-25T10:13:10.192Z,8.80
2023-07-25T10:15:38.268Z,9.30
2023-07-25T10:18:18.517Z,7.60
2023-07-25T10:20:45.889Z,8.00
2023-07-25T10:23:16.168Z,7.63
2023-07-25T10:25:43.498Z,8.23
2023-07-25T10:28:12.768Z,7.07
2023-07-25T10:30:46.856Z,7.80
2023-07-25T10:33:14.970Z,8.30
2023-07-25T10:38:40.806Z,8.43
2023-07-25T10:41:17.601Z,12.10
2023-07-25T10:43:49.861Z,9.00
2023-07-25T10:46:19.832Z,8.60
2023-07-25T10:48:51.528Z,7.70
2023-07-25T10:51:23.146Z,7.57
2023-07-25T10:54:11.930Z,7.00
2023-07-25T10:56:39.634Z,7.00
2023-07-25T10:59:13.578Z,6.17
2023-07-25T11:01:49.050Z,7.10
2023-07-25T11:04:23.494Z,9.70
2023-07-25T11:06:51.592Z,6.20
2023-07-25T11:09:19.215Z,9.63
2023-07-25T11:11:47.209Z,8.10
2023-07-25T11:14:17.006Z,7.43
2023-07-25T11:16:44.768Z,7.60
2023-07-25T11:19:12.870Z,4.30
2023-07-25T11:21:41.634Z,4.67
2023-07-25T11:24:10.190Z,4.30
2023-07-25T11:26:41.151Z,4.80
2023-07-25T11:29:09.888Z,5.60
2023-07-25T11:31:38.977Z,4.67
2023-07-25T11:34:15.945Z,4.63
2023-07-25T11:36:44.506Z,4.37
2023-07-25T11:39:12.710Z,4.07
2023-07-25T11:41:40.755Z,2.90
2023-07-25T11:44:12.057Z,3.23
2023-07-25T11:46:42.138Z,3.00
2023-07-25T11:49:10.130Z,3.13
2023-07-25T11:51:38.602Z,3.60
2023-07-25T11:54:08.196Z,3.90
2023-07-25T11:56:39.069Z,2.03
2023-07-25T11:59:07.537Z,3.33
2023-07-25T12:01:37.977Z,3.17
2023-07-25T12:04:13.531Z,3.03
2023-07-25T12:06:40.784Z,2.80
2023-07-25T12:09:09.311Z,2.97
2023-07-25T12:11:44.173Z,2.93
2023-07-25T12:14:12.761Z,3.43
2023-07-25T12:16:44.709Z,3.17
2023-07-25T12:19:12.824Z,3.00
2023-07-25T12:21:40.801Z,3.30
2023-07-25T12:24:08.944Z,3.50
2023-07-25T12:26:49.604Z,2.90
2023-07-25T12:29:18.601Z,3.40
2023-07-25T12:31:46.179Z,3.80
2023-07-25T12:34:14.063Z,7.23
2023-07-25T12:36:41.275Z,3.93
2023-07-25T12:39:10.925Z,3.37
2023-07-25T12:41:39.034Z,3.03
2023-07-25T12:44:07.234Z,3.97
2023-07-25T12:46:35.899Z,3.27
2023-07-25T12:49:05.624Z,3.17
2023-07-25T12:51:33.108Z,5.17
2023-07-25T12:54:01.811Z,6.00
2023-07-25T12:56:29.055Z,3.60
2023-07-25T12:58:56.449Z,3.67
2023-07-25T13:01:23.969Z,3.43
2023-07-25T13:03:52.055Z,4.73
2023-07-25T13:06:19.428Z,6.10
2023-07-25T13:08:47.310Z,6.00
2023-07-25T13:11:14.938Z,4.43
2023-07-25T13:13:42.552Z,3.53
2023-07-25T13:16:10.107Z,3.97
2023-07-25T13:18:37.413Z,4.03
2023-07-25T13:21:07.230Z,5.77
2023-07-25T13:23:36.921Z,3.73
2023-07-25T13:26:04.402Z,4.17
2023-07-25T13:28:31.640Z,3.53
2023-07-25T13:31:00.067Z,3.50
2023-07-25T13:33:27.417Z,5.00
2023-07-25T13:35:54.793Z,4.77
2023-07-25T13:38:22.494Z,6.53
2023-07-25T13:40:54.794Z,5.23
2023-07-25T13:43:22.976Z,4.37
2023-07-25T13:45:53.216Z,4.77
2023-07-25T13:48:22.006Z,5.90
2023-07-25T13:50:54.464Z,4.53
2023-07-25T13:53:26.849Z,6.63
2023-07-25T13:55:54.095Z,4.87
2023-07-25T13:58:24.597Z,8.43
2023-07-25T14:00:52.559Z,5.83
2023-07-25T14:03:20.591Z,7.50
2023-07-25T14:05:47.912Z,9.33
2023-07-25T14:08:18.755Z,5.43
2023-07-25T14:10:48.364Z,6.43
2023-07-25T14:13:15.695Z,5.17
2023-07-25T14:15:45.139Z,5.27
2023-07-25T14:18:14.117Z,6.67
2023-07-25T14:20:41.377Z,6.00
2023-07-25T14:23:08.725Z,4.57
2023-07-25T14:25:37.039Z,4.97
2023-07-25T14:28:04.335Z,5.60
2023-07-25T14:30:34.953Z,4.97
2023-07-25T14:33:03.784Z,4.70
2023-07-25T14:35:34.076Z,7.33
2023-07-25T14:38:02.350Z,11.90
2023-07-25T14:40:30.240Z,6.50
2023-07-25T14:42:57.584Z,5.67
2023-07-25T14:45:26.061Z,6.20
2023-07-25T14:47:56.730Z,4.83
2023-07-25T14:50:28.495Z,5.47
2023-07-25T14:52:56.061Z,7.50
2023-07-25T14:55:26.026Z,4.93
2023-07-25T14:57:53.386Z,5.53
2023-07-25T15:00:26.556Z,4.67
2023-07-25T15:02:55.565Z,4.83
2023-07-25T15:05:24.130Z,5.53
2023-07-25T15:07:51.409Z,5.30
2023-07-25T15:10:18.636Z,6.57
2023-07-25T15:12:46.153Z,5.20
2023-07-25T15:15:15.399Z,5.20
2023-07-25T15:17:44.174Z,5.43
2023-07-25T15:20:11.542Z,5.57
2023-07-25T15:22:39.359Z,5.23
2023-07-25T15:25:06.861Z,6.37
2023-07-25T15:27:35.242Z,7.30
2023-07-25T15:30:02.570Z,5.70
2023-07-25T15:32:33.304Z,4.57
2023-07-25T15:35:03.876Z,6.87
2023-07-25T15:37:31.158Z,5.97
2023-07-25T15:39:58.493Z,5.17
2023-07-25T15:42:25.735Z,5.33
2023-07-25T15:44:52.961Z,4.13
2023-07-25T15:47:20.203Z,6.10
2023-07-25T15:49:49.001Z,6.33
2023-07-25T15:52:16.669Z,6.87
2023-07-25T15:54:45.126Z,5.73
2023-07-25T15:57:12.441Z,4.30
2023-07-25T15:59:40.170Z,6.30
2023-07-25T16:02:07.406Z,4.33
2023-07-25T16:04:34.730Z,5.77
2023-07-25T16:07:01.970Z,4.30
2023-07-25T16:09:29.313Z,5.20
2023-07-25T16:11:57.096Z,6.70
2023-07-25T16:14:24.669Z,5.03
2023-07-25T16:16:52.205Z,5.73
2023-07-25T16:19:19.774Z,5.57
2023-07-25T16:21:47.103Z,6.20
2023-07-25T16:24:16.870Z,4.33
2023-07-25T16:26:45.536Z,5.57
2023-07-25T16:29:13.060Z,6.23
2023-07-25T16:31:50.873Z,6.23
2023-07-25T16:34:20.072Z,8.60
2023-07-25T16:36:47.393Z,5.73
2023-07-25T16:39:14.771Z,6.07
2023-07-25T16:41:42.059Z,4.27
2023-07-25T16:44:10.359Z,7.70
2023-07-25T16:46:38.704Z,5.80
2023-07-25T16:49:06.438Z,4.63
2023-07-25T16:51:33.769Z,6.13
2023-07-25T16:54:01.413Z,5.50
2023-07-25T16:56:28.669Z,7.20
2023-07-25T16:58:58.063Z,6.17
2023-07-25T17:01:25.421Z,4.23
2023-07-25T17:03:52.902Z,4.80
2023-07-25T17:06:23.632Z,5.27
2023-07-25T17:08:50.847Z,4.43
2023-07-25T17:11:21.988Z,4.47
2023-07-25T17:13:50.684Z,8.50
2023-07-25T17:16:19.135Z,6.03
2023-07-25T17:18:46.503Z,7.00
2023-07-25T17:21:18.361Z,4.70
2023-07-25T17:23:52.071Z,3.90
2023-07-25T17:26:19.337Z,5.10
2023-07-25T17:28:46.596Z,4.03
2023-07-25T17:31:16.357Z,5.90
2023-07-25T17:33:43.684Z,4.23
2023-07-25T17:36:12.439Z,5.47
2023-07-25T17:38:39.690Z,5.93
2023-07-25T17:41:08.127Z,6.27
2023-07-25T17:43:35.371Z,5.73
2023-07-25T17:46:02.682Z,6.07
2023-07-25T17:48:30.078Z,5.50
2023-07-25T17:50:57.662Z,5.60
2023-07-25T17:53:28.407Z,5.00
2023-07-25T17:55:55.776Z,6.50
2023-07-25T17:58:23.298Z,6.10
2023-07-25T18:00:51.760Z,6.03
2023-07-25T18:03:19.246Z,4.80
2023-07-25T18:05:48.340Z,5.20
2023-07-25T18:08:15.990Z,5.00
2023-07-25T18:10:43.276Z,6.30
2023-07-25T18:13:12.083Z,6.10
2023-07-25T18:15:39.689Z,6.60
2023-07-25T18:18:11.148Z,7.73
2023-07-25T18:20:41.617Z,7.87
2023-07-25T18:23:08.955Z,5.57
2023-07-25T18:25:37.752Z,6.13
2023-07-25T18:28:05.122Z,4.70
2023-07-25T18:30:36.728Z,5.60
2023-07-25T18:33:04.525Z,5.43
2023-07-25T18:35:32.872Z,5.53
2023-07-25T18:38:00.685Z,6.10
2023-07-25T18:40:28.276Z,6.70
2023-07-25T18:42:55.592Z,5.30
2023-07-25T18:45:22.893Z,7.47
2023-07-25T18:47:50.725Z,4.67
2023-07-25T18:50:18.207Z,3.97
2023-07-25T18:52:45.623Z,5.77
2023-07-25T18:55:13.025Z,4.63
2023-07-25T18:57:40.359Z,5.30
2023-07-25T19:00:08.242Z,3.83
2023-07-25T19:02:36.642Z,7.10
2023-07-25T19:05:04.175Z,4.83
2023-07-25T19:07:31.555Z,4.20
2023-07-25T19:09:59.114Z,4.63
2023-07-25T19:12:28.612Z,3.60
2023-07-25T19:14:55.962Z,4.00
2023-07-25T19:17:23.294Z,4.27
2023-07-25T19:19:50.847Z,3.13
2023-07-25T19:22:18.396Z,6.30
2023-07-25T19:24:46.289Z,4.27
2023-07-25T19:27:14.561Z,4.33
2023-07-25T19:29:42.005Z,3.17
2023-07-25T19:32:09.592Z,3.80
2023-07-25T19:34:36.937Z,4.60
2023-07-25T19:37:04.948Z,3.47
2023-07-25T19:39:35.790Z,4.03
2023-07-25T19:42:03.317Z,3.43
2023-07-25T19:44:30.676Z,3.70
2023-07-25T19:46:58.395Z,7.13
2023-07-25T19:49:26.088Z,4.13
2023-07-25T19:51:53.336Z,5.47
2023-07-25T19:54:20.663Z,4.03
2023-07-25T19:56:49.001Z,5.20
2023-07-25T19:59:16.359Z,5.13
2023-07-25T20:01:44.092Z,4.20
2023-07-25T20:04:11.377Z,6.03
2023-07-25T20:06:38.766Z,3.57
2023-07-25T20:09:06.056Z,5.57
2023-07-25T20:11:34.940Z,4.40
2023-07-25T20:14:03.136Z,5.20
2023-07-25T20:16:30.792Z,3.50
2023-07-25T20:18:59.846Z,4.23
2023-07-25T20:21:27.200Z,3.57
2023-07-25T20:23:54.555Z,2.93
2023-07-25T20:26:21.814Z,3.10
2023-07-25T20:28:49.133Z,3.20
2023-07-25T20:31:17.449Z,2.87
2023-07-25T20:33:44.681Z,3.33
2023-07-25T20:36:11.889Z,5.00
2023-07-25T20:38:39.142Z,3.97
2023-07-25T20:41:06.424Z,3.60
2023-07-25T20:43:35.897Z,5.70
2023-07-25T20:46:04.141Z,2.80
2023-07-25T20:48:36.114Z,3.07
2023-07-25T20:51:03.911Z,3.37
2023-07-25T20:53:31.255Z,3.67
2023-07-25T20:56:01.680Z,3.03
2023-07-25T20:58:29.852Z,3.20
2023-07-25T21:00:57.224Z,2.87
2023-07-25T21:03:25.689Z,3.10
2023-07-25T21:05:52.994Z,3.57
2023-07-25T21:08:20.196Z,3.00
2023-07-25T21:10:49.824Z,3.00
2023-07-25T21:13:17.567Z,2.77
2023-07-25T21:15:44.852Z,3.10
2023-07-25T21:18:14.159Z,3.03
2023-07-25T21:20:42.181Z,3.07
2023-07-25T21:23:09.405Z,3.00
2023-07-25T21:25:38.461Z,2.77
2023-07-25T21:28:06.050Z,6.10
2023-07-25T21:30:34.653Z,6.03
2023-07-25T21:33:02.028Z,3.40
2023-07-25T21:35:29.356Z,3.20
2023-07-25T21:37:57.024Z,3.07
2023-07-25T21:40:26.704Z,3.00
2023-07-25T21:42:53.919Z,4.77
2023-07-25T21:45:22.492Z,3.30
2023-07-25T21:47:49.776Z,4.40
2023-07-25T21:50:17.147Z,2.87
2023-07-25T21:52:44.435Z,3.90
2023-07-25T21:55:11.623Z,4.93
2023-07-25T21:57:38.911Z,3.37
2023-07-25T22:00:07.219Z,3.90
2023-07-25T22:02:44.407Z,4.07
2023-07-25T22:05:11.663Z,3.20
2023-07-25T22:07:40.123Z,3.60
2023-07-25T22:10:07.951Z,4.40
2023-07-25T22:12:35.222Z,4.07
2023-07-25T22:15:03.599Z,4.20
2023-07-25T22:17:30.981Z,4.90
2023-07-25T22:19:58.576Z,3.60
2023-07-25T22:22:25.849Z,3.93
2023-07-25T22:24:53.088Z,4.50
2023-07-25T22:27:20.308Z,3.70
2023-07-25T22:29:47.653Z,6.23
2023-07-25T22:32:14.889Z,3.57
2023-07-25T22:34:42.579Z,5.40
2023-07-25T22:37:09.798Z,3.80
2023-07-25T22:39:37.027Z,4.80
2023-07-25T22:42:04.342Z,5.43
2023-07-25T22:44:31.599Z,4.13
2023-07-25T22:46:58.847Z,4.07
2023-07-25T22:49:26.037Z,4.70
2023-07-25T22:51:54.066Z,4.77
2023-07-25T22:54:21.466Z,3.60
2023-07-25T22:56:50.833Z,4.33
2023-07-25T22:59:18.076Z,7.60
2023-07-25T23:01:45.372Z,4.93
2023-07-25T23:04:13.898Z,5.47
2023-07-25T23:06:41.480Z,6.37
2023-07-25T23:09:10.348Z,4.27
2023-07-25T23:11:37.731Z,4.63
2023-07-25T23:14:05.153Z,5.13
2023-07-25T23:16:32.852Z,4.73
2023-07-25T23:19:00.675Z,4.17
2023-07-25T23:21:28.275Z,6.20
2023-07-25T23:23:58.034Z,5.53
2023-07-25T23:26:25.380Z,4.37
2023-07-25T23:28:52.929Z,4.90
2023-07-25T23:31:20.549Z,5.43
2023-07-25T23:33:48.003Z,4.87
2023-07-25T23:36:15.733Z,7.30
2023-07-25T23:38:43.730Z,6.87
2023-07-25T23:41:11.658Z,4.40
2023-07-25T23:43:39.169Z,5.67
2023-07-25T23:46:07.672Z,4.40
2023-07-25T23:48:36.926Z,4.53
2023-07-25T23:51:04.651Z,5.30
2023-07-25T23:53:32.127Z,4.67
2023-07-25T23:55:59.904Z,5.20
2023-07-25T23:58:27.382Z,4.73
